Weather at Ada Regional Airport

Public forecast

Using degrees Fahrenheit for public forecast. Weather courtesy of forecast.io.

Current aviation weather report (METAR) for Ada Regional Airport

Retrieved 2020/09/29 22:35 UTC (15 minutes ago):

KADH 292235Z AUTO 30003KT 10SM CLR 25/03 A3006 RMK AO2

Closest aviation forecast (TAF) to Ada Regional Airport

Closest forecast is Mc Alester Regional Airport, 44.0 nm (81.5 km) E. Retrieved 2020/09/29 18:22 UTC (4 hours ago):

TAF KMLC 291720Z 2918/3018 32004KT P6SM SKC FM300000 21003KT P6SM SKC FM301500 23007KT P6SM SKC